Time;durP1;ratioP1;P1;durP2;ratioP2;P2;SDS_P1;SDS_P2;PMS_P1;PMS_P2;Temp;Humidity;BMP_temperature;BMP_pressure;BME280_temperature;BME280_humidity;BME280_pressure;Samples;Min_cycle;Max_cycle;Signal;HPM_P1;HPM_P2
2023/08/01 00:02:16;;;;;;;0.30;0.30;;;18.60;99.90;;;;;;4368517;32;20494;-73
2023/08/01 00:04:42;;;;;;;0.77;0.60;;;18.50;99.90;;;;;;4368493;32;20070;-75
2023/08/01 00:07:07;;;;;;;0.40;0.40;;;18.40;99.90;;;;;;4367603;32;20066;-75
2023/08/01 00:09:33;;;;;;;0.40;0.40;;;18.40;99.90;;;;;;4367881;32;20534;-73
2023/08/01 00:11:58;;;;;;;0.30;0.30;;;18.40;99.90;;;;;;4367509;32;20071;-74
2023/08/01 00:14:24;;;;;;;0.50;0.50;;;18.40;99.90;;;;;;4377736;32;20194;-74
2023/08/01 00:16:50;;;;;;;0.50;0.50;;;18.30;99.90;;;;;;4382823;32;20534;-75
2023/08/01 00:19:15;;;;;;;0.40;0.40;;;18.30;99.90;;;;;;4382388;32;20066;-73
2023/08/01 00:21:41;;;;;;;0.30;0.30;;;18.20;99.90;;;;;;4382907;32;20113;-74
2023/08/01 00:24:08;;;;;;;2.03;0.40;;;18.10;99.90;;;;;;4383933;32;20066;-74
2023/08/01 00:26:33;;;;;;;0.40;0.40;;;17.90;99.90;;;;;;4382643;32;20725;-74
2023/08/01 00:28:59;;;;;;;2.17;0.50;;;17.90;99.90;;;;;;4382082;32;20116;-75
2023/08/01 00:31:24;;;;;;;1.30;1.10;;;17.90;99.90;;;;;;4384729;32;20082;-73
2023/08/01 00:33:50;;;;;;;0.40;0.40;;;17.80;99.90;;;;;;4385328;32;20071;-73
2023/08/01 00:36:15;;;;;;;0.32;0.32;;;17.70;99.90;;;;;;4385013;32;20087;-74
2023/08/01 00:38:43;;;;;;;0.30;0.30;;;17.70;99.90;;;;;;4385075;32;20095;-74
2023/08/01 00:41:09;;;;;;;0.30;0.30;;;17.60;99.90;;;;;;4381602;32;20520;-75
2023/08/01 00:43:34;;;;;;;0.22;0.22;;;17.60;99.90;;;;;;4369833;32;20099;-74
2023/08/01 00:46:02;;;;;;;0.45;0.45;;;17.60;99.90;;;;;;4369741;32;20063;-75
2023/08/01 00:48:29;;;;;;;0.40;0.40;;;17.50;99.90;;;;;;4373593;32;20542;-73
2023/08/01 00:50:56;;;;;;;0.50;0.50;;;17.50;99.90;;;;;;4384506;32;20074;-73
2023/08/01 00:53:22;;;;;;;0.28;0.28;;;17.50;99.90;;;;;;4385002;32;20071;-74
2023/08/01 00:55:48;;;;;;;0.20;0.20;;;17.50;99.90;;;;;;4385264;32;20121;-74
2023/08/01 00:58:13;;;;;;;0.40;0.40;;;17.50;99.90;;;;;;4385217;32;20078;-74
2023/08/01 01:00:39;;;;;;;0.40;0.40;;;17.50;99.90;;;;;;4384909;32;20495;-73
2023/08/01 01:03:05;;;;;;;0.32;0.32;;;17.50;99.90;;;;;;4384687;32;20522;-74
2023/08/01 01:05:34;;;;;;;0.30;0.30;;;17.40;99.90;;;;;;4385097;32;20078;-74
2023/08/01 01:08:01;;;;;;;0.28;0.28;;;17.40;99.90;;;;;;4384611;32;20431;-73
2023/08/01 01:10:27;;;;;;;0.40;0.40;;;17.40;99.90;;;;;;4386350;32;20078;-73
2023/08/01 01:12:52;;;;;;;0.30;0.30;;;17.30;99.90;;;;;;4385867;32;20066;-74
2023/08/01 01:15:18;;;;;;;0.30;0.30;;;17.40;99.90;;;;;;4384829;32;20178;-74
2023/08/01 01:17:43;;;;;;;0.70;0.70;;;17.50;99.90;;;;;;4384493;32;20074;-73
2023/08/01 01:20:09;;;;;;;0.50;0.50;;;17.50;99.90;;;;;;4385140;32;20432;-73
2023/08/01 01:22:37;;;;;;;1.65;0.50;;;17.40;99.90;;;;;;4384653;32;20066;-74
2023/08/01 01:25:03;;;;;;;0.68;0.68;;;17.40;99.90;;;;;;4384571;32;20079;-74
2023/08/01 01:27:30;;;;;;;0.37;0.37;;;17.40;99.90;;;;;;4380927;32;20070;-75
2023/08/01 01:29:56;;;;;;;0.32;0.32;;;17.50;99.90;;;;;;4379136;32;20069;-75
2023/08/01 01:32:22;;;;;;;0.50;0.50;;;17.40;99.90;;;;;;4384016;32;20074;-73
2023/08/01 01:34:48;;;;;;;0.30;0.30;;;17.30;99.90;;;;;;4384467;32;20075;-74
2023/08/01 01:37:13;;;;;;;0.30;0.30;;;17.30;99.90;;;;;;4384341;32;20086;-75
2023/08/01 01:39:39;;;;;;;0.50;0.50;;;17.30;99.90;;;;;;4384660;32;20130;-74
2023/08/01 01:42:05;;;;;;;0.50;0.50;;;17.30;99.90;;;;;;4382856;32;20070;-73
2023/08/01 01:44:31;;;;;;;0.40;0.40;;;17.40;99.90;;;;;;4384190;32;20082;-74
2023/08/01 01:46:56;;;;;;;0.47;0.47;;;17.30;99.90;;;;;;4384087;32;20502;-73
2023/08/01 01:49:22;;;;;;;0.40;0.40;;;17.30;99.90;;;;;;4384124;32;20071;-74
2023/08/01 01:51:47;;;;;;;0.30;0.30;;;17.30;99.90;;;;;;4384579;32;20075;-73
2023/08/01 01:54:13;;;;;;;0.40;0.40;;;17.30;99.90;;;;;;4377085;32;20400;-73
2023/08/01 01:56:38;;;;;;;0.55;0.55;;;17.30;99.90;;;;;;4373292;32;20152;-73
2023/08/01 01:59:04;;;;;;;0.37;0.37;;;17.30;99.90;;;;;;4383892;32;20186;-74
2023/08/01 02:01:29;;;;;;;2.55;0.75;;;17.30;99.90;;;;;;4384542;32;20086;-74
2023/08/01 02:03:54;;;;;;;0.30;0.30;;;17.40;99.90;;;;;;4383957;32;20514;-75
2023/08/01 02:06:20;;;;;;;0.30;0.30;;;17.40;99.90;;;;;;4384338;32;20074;-74
2023/08/01 02:08:45;;;;;;;0.30;0.30;;;17.40;99.90;;;;;;4383926;32;20082;-73
2023/08/01 02:11:11;;;;;;;2.15;0.73;;;17.40;99.90;;;;;;4383671;32;20066;-73
2023/08/01 02:13:36;;;;;;;0.30;0.30;;;17.30;99.90;;;;;;4384177;32;20131;-74
2023/08/01 02:16:02;;;;;;;0.50;0.50;;;17.30;99.90;;;;;;4381460;32;20130;-74
2023/08/01 02:18:27;;;;;;;0.40;0.40;;;17.30;99.90;;;;;;4369252;32;20094;-74
2023/08/01 02:20:53;;;;;;;0.43;0.40;;;17.30;99.90;;;;;;4368837;32;20079;-74
2023/08/01 02:23:18;;;;;;;6.40;0.50;;;17.30;99.90;;;;;;4376490;32;20590;-73
2023/08/01 02:25:44;;;;;;;0.50;0.50;;;17.20;99.90;;;;;;4380159;32;20071;-73
2023/08/01 02:28:09;;;;;;;0.40;0.40;;;17.20;99.90;;;;;;4381897;32;20070;-73
2023/08/01 02:30:35;;;;;;;0.52;0.40;;;17.20;99.90;;;;;;4378216;32;20543;-74
2023/08/01 02:33:01;;;;;;;0.20;0.20;;;17.10;99.90;;;;;;4374668;32;20062;-75
2023/08/01 02:35:28;;;;;;;0.47;0.47;;;17.20;99.90;;;;;;4372585;32;20074;-73
2023/08/01 02:37:53;;;;;;;0.70;0.70;;;17.20;99.90;;;;;;4381472;32;20057;-73
2023/08/01 02:40:19;;;;;;;0.75;0.52;;;17.30;99.90;;;;;;4375565;32;20467;-74
2023/08/01 02:42:44;;;;;;;0.47;0.47;;;17.30;99.90;;;;;;4371385;32;20083;-74
2023/08/01 02:45:10;;;;;;;0.30;0.30;;;17.30;99.90;;;;;;4383739;32;20082;-74
2023/08/01 02:47:35;;;;;;;14.60;0.52;;;17.30;99.90;;;;;;4383844;32;20079;-74
2023/08/01 02:50:01;;;;;;;6.22;1.75;;;17.30;99.90;;;;;;4383396;32;20067;-73
2023/08/01 02:52:27;;;;;;;0.30;0.30;;;17.40;99.90;;;;;;4382752;32;20527;-74
2023/08/01 02:54:53;;;;;;;2.45;0.77;;;17.30;99.90;;;;;;4382825;32;20067;-74
2023/08/01 02:57:18;;;;;;;0.30;0.30;;;17.30;99.90;;;;;;4384315;32;20062;-75
2023/08/01 02:59:44;;;;;;;0.32;0.32;;;17.30;99.90;;;;;;4381218;32;20073;-74
2023/08/01 03:02:09;;;;;;;0.30;0.30;;;17.30;99.90;;;;;;4383416;32;20075;-76
2023/08/01 03:04:35;;;;;;;0.37;0.37;;;17.40;99.90;;;;;;4382835;32;20109;-75
2023/08/01 03:07:01;;;;;;;0.98;0.85;;;17.40;99.90;;;;;;4382304;32;20057;-74
2023/08/01 03:09:26;;;;;;;0.60;0.52;;;17.40;99.90;;;;;;4383622;32;20551;-74
2023/08/01 03:11:52;;;;;;;0.30;0.30;;;17.30;99.90;;;;;;4383076;32;20071;-74
2023/08/01 03:14:17;;;;;;;0.22;0.22;;;17.30;99.90;;;;;;4381513;32;20510;-75
2023/08/01 03:16:42;;;;;;;1.48;0.75;;;17.30;99.90;;;;;;4382655;32;20543;-73
2023/08/01 03:19:08;;;;;;;0.40;0.40;;;17.30;99.90;;;;;;4383114;32;20485;-73
2023/08/01 03:21:34;;;;;;;0.47;0.47;;;17.40;99.90;;;;;;4383136;32;20066;-75
2023/08/01 03:24:01;;;;;;;0.40;0.40;;;17.30;99.90;;;;;;4382925;32;20618;-74
2023/08/01 03:26:28;;;;;;;0.30;0.30;;;17.30;99.90;;;;;;4383111;32;20074;-73
2023/08/01 03:28:55;;;;;;;1.65;0.50;;;17.30;99.90;;;;;;4377732;32;20511;-74
2023/08/01 03:31:22;;;;;;;1.87;1.00;;;17.30;99.90;;;;;;4378593;32;20082;-74
2023/08/01 03:33:47;;;;;;;0.52;0.45;;;17.30;99.90;;;;;;4382683;32;20066;-75
2023/08/01 03:36:13;;;;;;;0.40;0.40;;;17.30;99.90;;;;;;4380201;32;20622;-74
2023/08/01 03:38:39;;;;;;;0.30;0.30;;;17.40;99.90;;;;;;4383131;32;20066;-74
2023/08/01 03:41:04;;;;;;;0.40;0.40;;;17.30;99.90;;;;;;4382570;32;20082;-74
2023/08/01 03:43:30;;;;;;;0.40;0.40;;;17.30;99.90;;;;;;4382769;32;20530;-73
2023/08/01 03:45:55;;;;;;;0.60;0.50;;;17.30;99.90;;;;;;4382866;32;20078;-74
2023/08/01 03:48:21;;;;;;;0.32;0.32;;;17.30;99.90;;;;;;4382547;32;20066;-73
2023/08/01 03:50:46;;;;;;;0.40;0.40;;;17.30;99.90;;;;;;4382651;32;20084;-74
2023/08/01 03:53:12;;;;;;;0.40;0.40;;;17.30;99.90;;;;;;4382749;32;20075;-74
2023/08/01 03:55:37;;;;;;;0.30;0.30;;;17.40;99.90;;;;;;4379760;32;20099;-75
2023/08/01 03:58:03;;;;;;;1.87;1.05;;;17.40;99.90;;;;;;4367469;32;20379;-75
2023/08/01 04:00:32;;;;;;;0.40;0.40;;;17.40;99.90;;;;;;4366283;32;20071;-75
2023/08/01 04:02:58;;;;;;;1.65;0.43;;;17.40;99.90;;;;;;4368111;32;20487;-75
2023/08/01 04:05:24;;;;;;;0.40;0.40;;;17.40;99.90;;;;;;4369508;32;20131;-75
2023/08/01 04:07:49;;;;;;;0.80;0.80;;;17.50;99.90;;;;;;4382576;32;20062;-74
2023/08/01 04:10:15;;;;;;;0.40;0.40;;;17.40;99.90;;;;;;4382445;32;20069;-74
2023/08/01 04:12:42;;;;;;;0.30;0.30;;;17.40;99.90;;;;;;4382754;32;20122;-74
2023/08/01 04:15:08;;;;;;;0.85;0.60;;;17.40;99.90;;;;;;4381687;32;20078;-74
2023/08/01 04:17:33;;;;;;;0.30;0.30;;;17.50;99.90;;;;;;4382151;32;20078;-74
2023/08/01 04:19:59;;;;;;;0.40;0.40;;;17.50;99.90;;;;;;4382938;32;20133;-74
2023/08/01 04:22:24;;;;;;;3.28;0.45;;;17.50;99.90;;;;;;4376303;32;20066;-75
2023/08/01 04:24:50;;;;;;;0.43;0.40;;;17.50;99.90;;;;;;4381929;32;20082;-74
2023/08/01 04:27:16;;;;;;;0.37;0.37;;;17.50;99.90;;;;;;4382780;32;20066;-76
2023/08/01 04:29:41;;;;;;;0.40;0.40;;;17.50;99.90;;;;;;4381160;32;20118;-73
2023/08/01 04:32:07;;;;;;;0.40;0.40;;;17.50;99.90;;;;;;4377041;32;20094;-73
2023/08/01 04:34:33;;;;;;;0.43;0.43;;;17.50;99.90;;;;;;4368774;32;20070;-74
2023/08/01 04:36:58;;;;;;;0.40;0.40;;;17.60;99.90;;;;;;4379509;32;20079;-74
2023/08/01 04:39:24;;;;;;;1.15;0.47;;;17.50;99.90;;;;;;4382297;32;20081;-74
2023/08/01 04:41:49;;;;;;;0.85;0.52;;;17.60;99.90;;;;;;4381057;32;20407;-74
2023/08/01 04:44:15;;;;;;;11.82;1.45;;;17.60;99.90;;;;;;4381736;32;20549;-73
2023/08/01 04:46:41;;;;;;;1.25;0.40;;;17.60;99.90;;;;;;4382354;32;20078;-74
2023/08/01 04:49:07;;;;;;;0.20;0.20;;;17.50;99.90;;;;;;4382293;32;20129;-74
2023/08/01 04:51:32;;;;;;;0.40;0.40;;;17.50;99.90;;;;;;4381170;32;20514;-75
2023/08/01 04:53:58;;;;;;;0.30;0.30;;;17.50;99.90;;;;;;4381610;32;20531;-74
2023/08/01 04:56:23;;;;;;;0.40;0.40;;;17.40;99.90;;;;;;4382974;32;20527;-75
2023/08/01 04:58:49;;;;;;;0.30;0.30;;;17.40;99.90;;;;;;4382558;32;20078;-74
2023/08/01 05:01:14;;;;;;;0.55;0.55;;;17.40;99.90;;;;;;4376631;32;20077;-73
2023/08/01 05:03:40;;;;;;;0.30;0.30;;;17.40;99.90;;;;;;4383129;32;20066;-74
2023/08/01 05:06:05;;;;;;;10.15;2.22;;;17.40;99.90;;;;;;4382885;32;20392;-75
2023/08/01 05:08:31;;;;;;;0.80;0.45;;;17.40;99.90;;;;;;4382330;32;20063;-74
2023/08/01 05:10:56;;;;;;;1.00;0.68;;;17.40;99.90;;;;;;4380915;32;20073;-75
2023/08/01 05:13:22;;;;;;;0.45;0.45;;;17.40;99.90;;;;;;4380872;32;20523;-74
2023/08/01 05:15:47;;;;;;;1.65;0.73;;;17.40;99.90;;;;;;4383223;32;20455;-74
2023/08/01 05:18:14;;;;;;;0.32;0.32;;;17.50;99.90;;;;;;4384361;32;20098;-73
2023/08/01 05:20:39;;;;;;;0.40;0.40;;;17.40;99.90;;;;;;4384586;32;20078;-74
2023/08/01 05:23:05;;;;;;;1.85;0.50;;;17.50;99.90;;;;;;4384161;32;20125;-74
2023/08/01 05:25:30;;;;;;;0.50;0.50;;;17.50;99.90;;;;;;4384625;32;20067;-74
2023/08/01 05:27:56;;;;;;;0.98;0.88;;;17.50;99.90;;;;;;4384719;32;20082;-74
2023/08/01 05:30:21;;;;;;;0.40;0.40;;;17.60;99.90;;;;;;4382571;32;20086;-74
2023/08/01 05:32:47;;;;;;;1.08;0.68;;;17.50;99.90;;;;;;4373596;32;20108;-73
2023/08/01 05:35:12;;;;;;;0.60;0.60;;;17.50;99.90;;;;;;4369396;32;20079;-73
2023/08/01 05:37:38;;;;;;;0.40;0.40;;;17.60;99.90;;;;;;4369630;32;20071;-74
2023/08/01 05:40:04;;;;;;;2.08;1.20;;;17.50;99.90;;;;;;4369754;32;20438;-74
2023/08/01 05:42:29;;;;;;;0.37;0.37;;;17.50;99.90;;;;;;4376238;32;20066;-74
2023/08/01 05:44:55;;;;;;;2.60;0.77;;;17.50;99.90;;;;;;4384466;32;20087;-75
2023/08/01 05:47:22;;;;;;;3.62;0.62;;;17.50;99.90;;;;;;4384393;32;20086;-73
2023/08/01 05:49:48;;;;;;;1.15;0.50;;;17.50;99.90;;;;;;4384338;32;20130;-74
2023/08/01 05:52:13;;;;;;;1.17;0.40;;;17.50;99.90;;;;;;4383860;32;20074;-74
2023/08/01 05:54:39;;;;;;;0.30;0.30;;;17.50;99.90;;;;;;4378890;32;20063;-75
2023/08/01 05:57:05;;;;;;;0.47;0.47;;;17.50;99.90;;;;;;4381701;32;20617;-73
2023/08/01 05:59:31;;;;;;;0.43;0.43;;;17.60;99.90;;;;;;4374671;32;20090;-73
2023/08/01 06:01:56;;;;;;;0.30;0.30;;;17.70;99.90;;;;;;4383341;32;20136;-74
2023/08/01 06:04:22;;;;;;;0.40;0.40;;;17.60;99.90;;;;;;4383615;32;20463;-74
2023/08/01 06:06:47;;;;;;;0.40;0.40;;;17.70;99.90;;;;;;4385567;32;20079;-75
2023/08/01 06:09:13;;;;;;;0.60;0.60;;;17.70;99.90;;;;;;4383886;32;20066;-73
2023/08/01 06:11:38;;;;;;;0.40;0.40;;;17.70;99.90;;;;;;4382481;32;20117;-73
2023/08/01 06:14:04;;;;;;;0.40;0.40;;;17.70;99.90;;;;;;4378389;32;20523;-76
2023/08/01 06:16:29;;;;;;;0.43;0.43;;;17.70;99.90;;;;;;4368904;32;20079;-74
2023/08/01 06:18:56;;;;;;;0.37;0.37;;;17.80;99.90;;;;;;4368761;32;20159;-73
2023/08/01 06:21:21;;;;;;;0.30;0.30;;;17.80;99.90;;;;;;4368794;32;20059;-74
2023/08/01 06:23:47;;;;;;;0.45;0.45;;;17.80;99.90;;;;;;4377692;32;20066;-74
2023/08/01 06:26:12;;;;;;;0.70;0.70;;;17.80;99.90;;;;;;4382544;32;20123;-74
2023/08/01 06:28:38;;;;;;;0.30;0.30;;;17.80;99.90;;;;;;4382146;32;20066;-73
2023/08/01 06:31:03;;;;;;;0.30;0.30;;;17.70;99.90;;;;;;4383178;32;20126;-72
2023/08/01 06:33:29;;;;;;;0.40;0.40;;;17.70;99.90;;;;;;4384054;32;20787;-74
2023/08/01 06:35:54;;;;;;;0.40;0.40;;;17.70;99.90;;;;;;4384446;32;20067;-75
2023/08/01 06:38:19;;;;;;;0.32;0.32;;;17.80;99.90;;;;;;4383446;32;20105;-74
2023/08/01 06:40:45;;;;;;;0.40;0.40;;;17.80;99.90;;;;;;4382696;32;20087;-74
2023/08/01 06:43:10;;;;;;;1.75;0.65;;;17.90;99.90;;;;;;4382929;32;20448;-74
2023/08/01 06:45:36;;;;;;;0.30;0.30;;;17.80;99.90;;;;;;4383671;32;20187;-74
2023/08/01 06:48:02;;;;;;;1.17;0.93;;;17.80;99.90;;;;;;4383717;32;20404;-73
2023/08/01 06:50:27;;;;;;;0.30;0.30;;;17.90;99.90;;;;;;4382630;32;20537;-74
2023/08/01 06:52:53;;;;;;;0.30;0.30;;;17.90;99.90;;;;;;4383064;32;20070;-74
2023/08/01 06:55:18;;;;;;;0.52;0.40;;;17.90;99.90;;;;;;4383373;32;20075;-73
2023/08/01 06:57:43;;;;;;;0.50;0.50;;;17.90;99.90;;;;;;4380926;32;20117;-73
2023/08/01 07:00:11;;;;;;;0.30;0.30;;;17.90;99.90;;;;;;4383349;32;20071;-74
2023/08/01 07:02:36;;;;;;;0.30;0.30;;;17.90;99.90;;;;;;4383107;32;20574;-74
2023/08/01 07:05:02;;;;;;;0.40;0.40;;;17.90;99.90;;;;;;4384066;32;20126;-74
2023/08/01 07:07:27;;;;;;;3.60;0.73;;;18.00;99.90;;;;;;4380367;32;20082;-74
2023/08/01 07:09:52;;;;;;;0.30;0.30;;;18.00;99.90;;;;;;4370514;32;20539;-74
2023/08/01 07:12:18;;;;;;;0.30;0.30;;;18.00;99.90;;;;;;4381279;32;20078;-74
2023/08/01 07:14:43;;;;;;;0.35;0.35;;;18.00;99.90;;;;;;4383755;32;20121;-73
2023/08/01 07:17:09;;;;;;;0.30;0.30;;;18.10;99.90;;;;;;4383216;32;20682;-73
2023/08/01 07:19:34;;;;;;;1.10;0.47;;;18.20;99.90;;;;;;4382678;32;20506;-73
2023/08/01 07:22:00;;;;;;;0.30;0.30;;;18.10;99.90;;;;;;4384192;32;20086;-73
2023/08/01 07:24:25;;;;;;;0.40;0.40;;;18.20;99.90;;;;;;4382507;32;20079;-74
2023/08/01 07:26:51;;;;;;;0.35;0.35;;;18.30;99.90;;;;;;4383623;32;20225;-74
2023/08/01 07:29:16;;;;;;;1.08;0.50;;;18.40;99.90;;;;;;4382560;32;20121;-73
2023/08/01 07:31:43;;;;;;;0.30;0.30;;;18.50;99.90;;;;;;4382817;32;20070;-73
2023/08/01 07:34:08;;;;;;;0.30;0.30;;;18.40;99.90;;;;;;4379078;32;20083;-73
2023/08/01 07:36:34;;;;;;;0.40;0.40;;;18.40;99.90;;;;;;4382675;32;20117;-74
2023/08/01 07:38:59;;;;;;;14.30;0.50;;;18.60;99.90;;;;;;4382795;32;20078;-73
2023/08/01 07:41:25;;;;;;;0.37;0.37;;;18.60;99.90;;;;;;4382740;32;20075;-74
2023/08/01 07:43:50;;;;;;;0.30;0.30;;;18.60;99.90;;;;;;4382834;32;20066;-74
2023/08/01 07:46:15;;;;;;;0.40;0.40;;;18.70;99.90;;;;;;4382826;32;20066;-74
2023/08/01 07:48:41;;;;;;;0.40;0.40;;;18.70;99.90;;;;;;4383079;32;20082;-73
2023/08/01 07:51:07;;;;;;;0.57;0.45;;;18.70;99.90;;;;;;4381833;32;20075;-74
2023/08/01 07:53:34;;;;;;;0.30;0.30;;;18.80;99.90;;;;;;4379956;32;20075;-73
2023/08/01 07:56:01;;;;;;;0.35;0.35;;;18.90;99.90;;;;;;4375900;32;20091;-74
2023/08/01 07:58:27;;;;;;;0.40;0.40;;;19.00;99.90;;;;;;4382947;32;20078;-74
2023/08/01 08:00:53;;;;;;;0.25;0.25;;;19.00;99.90;;;;;;4379224;32;20097;-74
2023/08/01 08:03:19;;;;;;;0.35;0.35;;;19.00;99.90;;;;;;4370025;32;20514;-74
2023/08/01 08:05:44;;;;;;;0.30;0.30;;;19.00;99.90;;;;;;4380382;32;20074;-73
2023/08/01 08:08:10;;;;;;;0.22;0.22;;;19.00;99.90;;;;;;4369711;32;20161;-74
2023/08/01 08:10:35;;;;;;;0.45;0.45;;;19.10;99.90;;;;;;4367053;32;20432;-73
2023/08/01 08:13:01;;;;;;;0.32;0.32;;;19.20;99.90;;;;;;4381727;32;20549;-73
2023/08/01 08:15:27;;;;;;;0.37;0.37;;;19.40;99.90;;;;;;4380650;32;20066;-74
2023/08/01 08:17:52;;;;;;;0.28;0.28;;;19.60;99.90;;;;;;4382832;32;20439;-74
2023/08/01 08:20:18;;;;;;;4.90;1.40;;;19.60;99.90;;;;;;4382840;32;20075;-74
2023/08/01 08:22:43;;;;;;;0.28;0.28;;;19.70;99.90;;;;;;4382635;32;20070;-74
2023/08/01 08:25:09;;;;;;;0.30;0.30;;;19.90;99.90;;;;;;4382335;32;20069;-74
2023/08/01 08:27:34;;;;;;;0.30;0.30;;;20.00;99.90;;;;;;4381177;32;20466;-73
2023/08/01 08:30:00;;;;;;;0.30;0.30;;;20.00;99.90;;;;;;4381121;32;20083;-73
2023/08/01 08:32:25;;;;;;;0.25;0.25;;;19.90;99.90;;;;;;4380217;32;20515;-74
2023/08/01 08:34:51;;;;;;;0.30;0.30;;;19.90;99.90;;;;;;4382005;32;20142;-74
2023/08/01 08:37:16;;;;;;;0.30;0.30;;;20.00;99.90;;;;;;4374756;32;20423;-73
2023/08/01 08:39:42;;;;;;;0.20;0.20;;;20.10;99.90;;;;;;4367663;32;20067;-75
2023/08/01 08:42:07;;;;;;;0.40;0.40;;;20.10;99.90;;;;;;4367353;32;20078;-74
2023/08/01 08:44:41;;;;;;;0.30;0.30;;;20.00;99.90;;;;;;4367374;32;20062;-76
2023/08/01 08:47:07;;;;;;;0.25;0.25;;;20.00;99.90;;;;;;4366962;32;20080;-74
2023/08/01 08:49:32;;;;;;;0.52;0.52;;;20.10;99.90;;;;;;4367469;32;20075;-75
2023/08/01 08:51:58;;;;;;;0.30;0.30;;;20.10;99.90;;;;;;4369711;32;20087;-73
2023/08/01 08:54:25;;;;;;;0.20;0.20;;;20.20;99.90;;;;;;4370224;32;20075;-74
2023/08/01 08:56:51;;;;;;;0.20;0.20;;;20.30;99.90;;;;;;4370063;32;20506;-74
2023/08/01 08:59:18;;;;;;;0.20;0.20;;;20.40;99.90;;;;;;4370074;32;20066;-73
2023/08/01 09:01:44;;;;;;;0.30;0.30;;;20.60;99.90;;;;;;4373086;32;20067;-74
2023/08/01 09:04:10;;;;;;;0.30;0.30;;;20.70;99.90;;;;;;4384634;32;20113;-74
2023/08/01 09:06:44;;;;;;;0.20;0.20;;;20.80;99.90;;;;;;4381362;32;20089;-74
2023/08/01 09:09:12;;;;;;;0.30;0.30;;;20.80;99.90;;;;;;4383712;32;20070;-73
2023/08/01 09:11:48;;;;;;;0.40;0.40;;;20.90;99.90;;;;;;4386252;32;20062;-75
2023/08/01 09:14:14;;;;;;;0.20;0.20;;;21.00;99.90;;;;;;4384969;32;20070;-74
2023/08/01 09:16:41;;;;;;;0.30;0.30;;;21.00;99.90;;;;;;4382015;32;20061;-74
2023/08/01 09:19:07;;;;;;;0.35;0.35;;;21.10;99.90;;;;;;4382857;32;20062;-73
2023/08/01 09:21:34;;;;;;;0.20;0.20;;;21.20;99.90;;;;;;4384855;32;20519;-73
2023/08/01 09:24:17;;;;;;;0.20;0.20;;;21.20;99.90;;;;;;4384478;32;20134;-73
2023/08/01 09:26:44;;;;;;;0.20;0.20;;;21.20;99.90;;;;;;4383742;32;20082;-74
2023/08/01 09:29:09;;;;;;;0.30;0.30;;;21.10;99.90;;;;;;4384049;32;20515;-73
2023/08/01 09:31:37;;;;;;;0.20;0.20;;;21.00;99.90;;;;;;4373633;32;20066;-74
2023/08/01 09:34:06;;;;;;;0.25;0.25;;;20.70;99.90;;;;;;4375955;32;20515;-73
2023/08/01 09:36:33;;;;;;;0.28;0.28;;;20.60;99.90;;;;;;4384382;32;20117;-74
2023/08/01 09:39:00;;;;;;;0.32;0.30;;;20.50;99.90;;;;;;4385347;32;20514;-73
2023/08/01 09:41:26;;;;;;;0.37;0.37;;;20.40;99.90;;;;;;4385210;32;20079;-73
2023/08/01 09:43:52;;;;;;;0.28;0.28;;;20.30;99.90;;;;;;4385672;32;20058;-72
2023/08/01 09:46:17;;;;;;;0.20;0.20;;;20.30;99.90;;;;;;4384079;32;20141;-73
2023/08/01 09:48:43;;;;;;;1.02;0.68;;;20.40;99.90;;;;;;4384115;32;20066;-74
2023/08/01 09:51:11;;;;;;;0.30;0.30;;;20.50;99.90;;;;;;4382114;32;20066;-74
2023/08/01 09:53:54;;;;;;;0.30;0.30;;;20.60;99.90;;;;;;4369794;32;20070;-73
2023/08/01 09:56:22;;;;;;;0.20;0.20;;;20.70;99.90;;;;;;4370394;32;20526;-73
2023/08/01 09:58:49;;;;;;;0.30;0.30;;;20.70;99.90;;;;;;4370097;32;20586;-73
2023/08/01 10:01:16;;;;;;;0.30;0.30;;;20.70;99.90;;;;;;4369003;32;20063;-73
2023/08/01 10:03:50;;;;;;;0.25;0.25;;;20.80;99.90;;;;;;4368787;32;20070;-74
2023/08/01 10:06:19;;;;;;;1.67;0.22;;;20.80;99.90;;;;;;4369672;32;20324;-73
2023/08/01 10:08:46;;;;;;;10.05;2.00;;;20.70;99.90;;;;;;4369357;32;20070;-73
2023/08/01 10:11:14;;;;;;;0.30;0.30;;;20.60;99.90;;;;;;4372484;32;20071;-73
2023/08/01 10:13:42;;;;;;;0.57;0.40;;;20.50;99.90;;;;;;4384353;32;20070;-72
2023/08/01 10:16:08;;;;;;;0.20;0.20;;;20.50;99.90;;;;;;4374500;32;20079;-73
2023/08/01 10:18:34;;;;;;;0.30;0.30;;;20.40;99.90;;;;;;4382551;32;20764;-73
2023/08/01 10:21:01;;;;;;;0.20;0.20;;;20.40;99.90;;;;;;4381592;32;20059;-74
2023/08/01 10:23:27;;;;;;;0.30;0.30;;;20.40;99.90;;;;;;4368401;32;20063;-72
2023/08/01 10:25:53;;;;;;;0.20;0.20;;;20.40;99.90;;;;;;4368152;32;20082;-73
2023/08/01 10:28:19;;;;;;;0.20;0.20;;;20.40;99.90;;;;;;4368082;32;20066;-73
2023/08/01 10:30:44;;;;;;;0.20;0.20;;;20.40;99.90;;;;;;4371376;32;20123;-74
2023/08/01 10:33:12;;;;;;;0.20;0.20;;;20.30;99.90;;;;;;4382112;32;20070;-73
2023/08/01 10:35:39;;;;;;;0.40;0.40;;;20.30;99.90;;;;;;4382070;32;20492;-74
2023/08/01 10:38:07;;;;;;;0.28;0.28;;;20.30;99.90;;;;;;4384059;32;20502;-73
2023/08/01 10:40:35;;;;;;;0.30;0.30;;;20.20;99.90;;;;;;4383286;32;20070;-74
2023/08/01 10:43:00;;;;;;;0.30;0.30;;;20.10;99.90;;;;;;4383577;32;20079;-73
2023/08/01 10:45:28;;;;;;;0.20;0.20;;;19.80;99.90;;;;;;4383699;32;20082;-73
2023/08/01 10:47:54;;;;;;;0.32;0.22;;;19.40;99.90;;;;;;4383209;32;20066;-74
2023/08/01 10:50:19;;;;;;;0.20;0.20;;;19.00;99.90;;;;;;4382212;32;20566;-74
2023/08/01 10:52:46;;;;;;;0.20;0.20;;;18.80;99.90;;;;;;4383142;32;20066;-73
2023/08/01 10:55:12;;;;;;;0.20;0.20;;;18.70;99.90;;;;;;4383875;32;20078;-72
2023/08/01 10:57:47;;;;;;;0.20;0.20;;;18.70;99.90;;;;;;4382826;32;20066;-73
2023/08/01 11:00:17;;;;;;;0.25;0.25;;;18.70;99.90;;;;;;4383504;32;20525;-74
2023/08/01 11:02:48;;;;;;;0.43;0.43;;;18.60;99.90;;;;;;4383889;32;20082;-73
2023/08/01 11:05:13;;;;;;;0.55;0.47;;;18.60;99.90;;;;;;4383603;32;20093;-74
2023/08/01 11:07:39;;;;;;;0.30;0.30;;;18.50;99.90;;;;;;4377133;32;20063;-74
2023/08/01 11:10:07;;;;;;;1.23;0.35;;;18.50;99.90;;;;;;4377801;32;20126;-74
2023/08/01 11:12:35;;;;;;;0.20;0.20;;;18.60;99.90;;;;;;4369516;32;20090;-73
2023/08/01 11:15:01;;;;;;;0.30;0.30;;;18.60;99.90;;;;;;4382622;32;20087;-73
2023/08/01 11:17:26;;;;;;;0.20;0.20;;;18.50;99.90;;;;;;4383051;32;20059;-75
2023/08/01 11:20:02;;;;;;;0.30;0.30;;;18.50;99.90;;;;;;4383284;32;20097;-74
2023/08/01 11:22:27;;;;;;;0.20;0.20;;;18.40;99.90;;;;;;4379288;32;20145;-73
2023/08/01 11:24:53;;;;;;;0.37;0.37;;;18.40;99.90;;;;;;4382503;32;20492;-73
2023/08/01 11:27:18;;;;;;;0.22;0.22;;;18.50;99.90;;;;;;4384209;32;20133;-74
2023/08/01 11:29:44;;;;;;;0.30;0.30;;;18.50;99.90;;;;;;4382768;32;20514;-73
2023/08/01 11:32:09;;;;;;;0.30;0.30;;;18.50;99.90;;;;;;4382380;32;20463;-73
2023/08/01 11:34:44;;;;;;;0.22;0.22;;;18.60;99.90;;;;;;4382722;32;20399;-72
2023/08/01 11:37:11;;;;;;;0.43;0.43;;;18.50;99.90;;;;;;4382969;32;20126;-73
2023/08/01 11:39:36;;;;;;;0.25;0.25;;;18.50;99.90;;;;;;4383105;32;20494;-72
2023/08/01 11:42:03;;;;;;;0.50;0.50;;;18.50;99.90;;;;;;4382940;32;20117;-73
2023/08/01 11:44:29;;;;;;;2.40;0.40;;;18.40;99.90;;;;;;4382804;32;20078;-72
2023/08/01 11:46:55;;;;;;;0.52;0.52;;;18.30;99.90;;;;;;4370625;32;115058;-73
2023/08/01 11:49:21;;;;;;;0.47;0.47;;;18.30;99.90;;;;;;4376948;32;20137;-72
2023/08/01 11:51:46;;;;;;;0.30;0.30;;;18.30;99.90;;;;;;4375822;32;20082;-72
2023/08/01 11:54:13;;;;;;;0.30;0.30;;;18.40;99.90;;;;;;4374588;32;20467;-73
2023/08/01 11:56:41;;;;;;;0.30;0.30;;;18.60;99.90;;;;;;4378945;32;20058;-74
2023/08/01 11:59:09;;;;;;;0.30;0.30;;;18.80;99.90;;;;;;4382608;32;20070;-72
2023/08/01 12:01:39;;;;;;;0.30;0.30;;;18.90;99.90;;;;;;4381948;32;20117;-74
2023/08/01 12:04:05;;;;;;;2.80;0.62;;;19.10;99.90;;;;;;4382314;32;20565;-73
2023/08/01 12:06:32;;;;;;;0.30;0.30;;;19.30;99.90;;;;;;4382441;32;20062;-75
2023/08/01 12:09:09;;;;;;;0.25;0.25;;;19.70;99.90;;;;;;4380646;32;20175;-72
2023/08/01 12:11:35;;;;;;;0.15;0.15;;;20.00;99.90;;;;;;4380449;32;20093;-72
2023/08/01 12:14:16;;;;;;;0.20;0.20;;;20.70;99.90;;;;;;4382272;32;20129;-72
2023/08/01 12:16:44;;;;;;;0.22;0.22;;;21.30;99.90;;;;;;4382491;32;20074;-73
2023/08/01 12:19:10;;;;;;;0.25;0.25;;;21.50;99.90;;;;;;4382600;32;20118;-72
2023/08/01 12:21:36;;;;;;;0.20;0.20;;;21.30;99.90;;;;;;4382410;32;20062;-72
2023/08/01 12:24:02;;;;;;;0.10;0.10;;;20.90;99.90;;;;;;4382009;32;20066;-75
2023/08/01 12:26:28;;;;;;;0.32;0.32;;;20.60;99.90;;;;;;4381805;32;20070;-73
2023/08/01 12:28:54;;;;;;;0.80;0.62;;;20.60;99.90;;;;;;4381919;32;20079;-74
2023/08/01 12:31:21;;;;;;;0.20;0.20;;;20.80;99.90;;;;;;4382166;32;20086;-74
2023/08/01 12:33:47;;;;;;;0.60;0.52;;;20.90;99.90;;;;;;4382068;32;20079;-74
2023/08/01 12:36:13;;;;;;;0.20;0.20;;;20.60;99.90;;;;;;4382678;32;20170;-75
2023/08/01 12:38:39;;;;;;;2.10;0.57;;;20.80;99.90;;;;;;4382359;32;20067;-74
2023/08/01 12:41:04;;;;;;;0.10;0.10;;;21.20;99.90;;;;;;4382769;32;20117;-75